sensor_id;sensor_type;location;lat;lon;timestamp;temperature;humidity
20574;DHT22;10445;50.216;7.912;2022-10-16T00:00:03;13.10;99.90
20574;DHT22;10445;50.216;7.912;2022-10-16T00:02:53;13.10;99.90
20574;DHT22;10445;50.216;7.912;2022-10-16T00:05:43;13.10;99.90
20574;DHT22;10445;50.216;7.912;2022-10-16T00:08:33;13.10;99.90
20574;DHT22;10445;50.216;7.912;2022-10-16T00:11:23;13.00;99.90
20574;DHT22;10445;50.216;7.912;2022-10-16T00:14:14;13.00;99.90
20574;DHT22;10445;50.216;7.912;2022-10-16T00:17:03;13.10;99.90
20574;DHT22;10445;50.216;7.912;2022-10-16T00:19:53;13.20;99.90
20574;DHT22;10445;50.216;7.912;2022-10-16T00:22:41;13.10;99.90
20574;DHT22;10445;50.216;7.912;2022-10-16T00:25:30;13.10;99.90
20574;DHT22;10445;50.216;7.912;2022-10-16T00:28:20;13.10;99.90
20574;DHT22;10445;50.216;7.912;2022-10-16T00:31:11;13.10;99.90
20574;DHT22;10445;50.216;7.912;2022-10-16T00:33:59;13.10;99.90
20574;DHT22;10445;50.216;7.912;2022-10-16T00:36:49;13.00;99.90
20574;DHT22;10445;50.216;7.912;2022-10-16T00:39:38;13.00;99.90
20574;DHT22;10445;50.216;7.912;2022-10-16T00:42:27;13.00;99.90
20574;DHT22;10445;50.216;7.912;2022-10-16T00:45:16;13.00;99.90
20574;DHT22;10445;50.216;7.912;2022-10-16T00:48:06;13.00;99.90
20574;DHT22;10445;50.216;7.912;2022-10-16T00:50:56;13.10;99.90
20574;DHT22;10445;50.216;7.912;2022-10-16T00:53:46;13.00;99.90
20574;DHT22;10445;50.216;7.912;2022-10-16T00:56:36;13.10;99.90
20574;DHT22;10445;50.216;7.912;2022-10-16T00:59:27;13.10;99.90
20574;DHT22;10445;50.216;7.912;2022-10-16T01:02:16;13.10;99.90
20574;DHT22;10445;50.216;7.912;2022-10-16T01:05:05;13.10;99.90
20574;DHT22;10445;50.216;7.912;2022-10-16T01:08:00;13.10;99.90
20574;DHT22;10445;50.216;7.912;2022-10-16T01:10:56;13.00;99.90
20574;DHT22;10445;50.216;7.912;2022-10-16T01:13:49;13.00;99.90
20574;DHT22;10445;50.216;7.912;2022-10-16T01:16:43;13.00;99.90
20574;DHT22;10445;50.216;7.912;2022-10-16T01:19:49;13.00;99.90
20574;DHT22;10445;50.216;7.912;2022-10-16T01:22:51;13.00;99.90
20574;DHT22;10445;50.216;7.912;2022-10-16T01:26:04;12.90;99.90
20574;DHT22;10445;50.216;7.912;2022-10-16T01:29:04;13.00;99.90
20574;DHT22;10445;50.216;7.912;2022-10-16T01:31:59;13.00;99.90
20574;DHT22;10445;50.216;7.912;2022-10-16T01:34:50;13.00;99.90
20574;DHT22;10445;50.216;7.912;2022-10-16T01:37:46;13.00;99.90
20574;DHT22;10445;50.216;7.912;2022-10-16T01:40:39;13.00;99.90
20574;DHT22;10445;50.216;7.912;2022-10-16T01:43:34;13.00;99.90
20574;DHT22;10445;50.216;7.912;2022-10-16T01:46:26;13.00;99.90
20574;DHT22;10445;50.216;7.912;2022-10-16T01:49:16;13.00;99.90
20574;DHT22;10445;50.216;7.912;2022-10-16T01:52:09;13.00;99.90
20574;DHT22;10445;50.216;7.912;2022-10-16T01:54:59;13.00;99.90
20574;DHT22;10445;50.216;7.912;2022-10-16T01:57:52;13.10;99.90
20574;DHT22;10445;50.216;7.912;2022-10-16T02:00:44;13.20;99.90
20574;DHT22;10445;50.216;7.912;2022-10-16T02:03:38;13.30;99.90
20574;DHT22;10445;50.216;7.912;2022-10-16T02:06:27;13.30;99.90
20574;DHT22;10445;50.216;7.912;2022-10-16T02:09:16;13.30;99.90
20574;DHT22;10445;50.216;7.912;2022-10-16T02:12:10;13.40;99.90
20574;DHT22;10445;50.216;7.912;2022-10-16T02:15:00;13.40;99.90
20574;DHT22;10445;50.216;7.912;2022-10-16T02:17:49;13.30;99.90
20574;DHT22;10445;50.216;7.912;2022-10-16T02:20:45;13.30;99.90
20574;DHT22;10445;50.216;7.912;2022-10-16T02:23:40;13.30;99.90
20574;DHT22;10445;50.216;7.912;2022-10-16T02:26:32;13.30;99.90
20574;DHT22;10445;50.216;7.912;2022-10-16T02:29:25;13.30;99.90
20574;DHT22;10445;50.216;7.912;2022-10-16T02:32:16;13.20;99.90
20574;DHT22;10445;50.216;7.912;2022-10-16T02:35:07;13.10;99.90
20574;DHT22;10445;50.216;7.912;2022-10-16T02:37:58;13.00;99.90
20574;DHT22;10445;50.216;7.912;2022-10-16T02:40:48;12.90;99.90
20574;DHT22;10445;50.216;7.912;2022-10-16T02:43:36;12.90;99.90
20574;DHT22;10445;50.216;7.912;2022-10-16T02:46:25;12.80;99.90
20574;DHT22;10445;50.216;7.912;2022-10-16T02:49:14;12.80;99.90
20574;DHT22;10445;50.216;7.912;2022-10-16T02:52:02;12.70;99.90
20574;DHT22;10445;50.216;7.912;2022-10-16T02:54:52;12.60;99.90
20574;DHT22;10445;50.216;7.912;2022-10-16T02:57:41;12.60;99.90
20574;DHT22;10445;50.216;7.912;2022-10-16T03:00:29;12.50;99.90
20574;DHT22;10445;50.216;7.912;2022-10-16T03:03:18;12.50;99.90
20574;DHT22;10445;50.216;7.912;2022-10-16T03:06:07;12.50;99.90
20574;DHT22;10445;50.216;7.912;2022-10-16T03:08:55;12.40;99.90
20574;DHT22;10445;50.216;7.912;2022-10-16T03:11:45;12.40;99.90
20574;DHT22;10445;50.216;7.912;2022-10-16T03:14:34;12.40;99.90
20574;DHT22;10445;50.216;7.912;2022-10-16T03:17:23;12.40;99.90
20574;DHT22;10445;50.216;7.912;2022-10-16T03:20:12;12.50;99.90
20574;DHT22;10445;50.216;7.912;2022-10-16T03:23:00;12.50;99.90
20574;DHT22;10445;50.216;7.912;2022-10-16T03:25:49;12.50;99.90
20574;DHT22;10445;50.216;7.912;2022-10-16T03:28:39;12.50;99.90
20574;DHT22;10445;50.216;7.912;2022-10-16T03:31:28;12.50;99.90
20574;DHT22;10445;50.216;7.912;2022-10-16T03:34:17;12.50;99.90
20574;DHT22;10445;50.216;7.912;2022-10-16T03:37:05;12.50;99.90
20574;DHT22;10445;50.216;7.912;2022-10-16T03:39:54;12.50;99.90
20574;DHT22;10445;50.216;7.912;2022-10-16T03:42:43;12.50;99.90
20574;DHT22;10445;50.216;7.912;2022-10-16T03:45:33;12.60;99.90
20574;DHT22;10445;50.216;7.912;2022-10-16T03:48:22;12.60;99.90
20574;DHT22;10445;50.216;7.912;2022-10-16T03:51:10;12.50;99.90
20574;DHT22;10445;50.216;7.912;2022-10-16T03:53:59;12.50;99.90
20574;DHT22;10445;50.216;7.912;2022-10-16T03:56:48;12.50;99.90
20574;DHT22;10445;50.216;7.912;2022-10-16T03:59:36;12.50;99.90
20574;DHT22;10445;50.216;7.912;2022-10-16T04:02:26;12.50;99.90
20574;DHT22;10445;50.216;7.912;2022-10-16T04:05:15;12.50;99.90
20574;DHT22;10445;50.216;7.912;2022-10-16T04:08:04;12.50;99.90
20574;DHT22;10445;50.216;7.912;2022-10-16T04:10:52;12.50;99.90
20574;DHT22;10445;50.216;7.912;2022-10-16T04:13:41;12.60;99.90
20574;DHT22;10445;50.216;7.912;2022-10-16T04:16:30;12.50;99.90
20574;DHT22;10445;50.216;7.912;2022-10-16T04:19:20;12.50;99.90
20574;DHT22;10445;50.216;7.912;2022-10-16T04:22:09;12.60;99.90
20574;DHT22;10445;50.216;7.912;2022-10-16T04:24:57;12.70;99.90
20574;DHT22;10445;50.216;7.912;2022-10-16T04:27:46;12.70;99.90
20574;DHT22;10445;50.216;7.912;2022-10-16T04:30:37;12.70;99.90
20574;DHT22;10445;50.216;7.912;2022-10-16T04:33:25;12.70;99.90
20574;DHT22;10445;50.216;7.912;2022-10-16T04:36:15;12.60;99.90
20574;DHT22;10445;50.216;7.912;2022-10-16T04:39:04;12.60;99.90
20574;DHT22;10445;50.216;7.912;2022-10-16T04:41:52;12.60;99.90
20574;DHT22;10445;50.216;7.912;2022-10-16T04:44:41;12.60;99.90
20574;DHT22;10445;50.216;7.912;2022-10-16T04:47:29;12.60;99.90
20574;DHT22;10445;50.216;7.912;2022-10-16T04:50:18;12.60;99.90
20574;DHT22;10445;50.216;7.912;2022-10-16T04:53:08;12.60;99.90
20574;DHT22;10445;50.216;7.912;2022-10-16T04:55:57;12.60;99.90
20574;DHT22;10445;50.216;7.912;2022-10-16T04:58:45;12.70;99.90
20574;DHT22;10445;50.216;7.912;2022-10-16T05:01:34;12.70;99.90
20574;DHT22;10445;50.216;7.912;2022-10-16T05:04:23;12.70;99.90
20574;DHT22;10445;50.216;7.912;2022-10-16T05:07:11;12.70;99.90
20574;DHT22;10445;50.216;7.912;2022-10-16T05:10:01;12.70;99.90
20574;DHT22;10445;50.216;7.912;2022-10-16T05:12:50;12.70;99.90
20574;DHT22;10445;50.216;7.912;2022-10-16T05:15:39;12.70;99.90
20574;DHT22;10445;50.216;7.912;2022-10-16T05:18:28;12.70;99.90
20574;DHT22;10445;50.216;7.912;2022-10-16T05:21:16;12.70;99.90
20574;DHT22;10445;50.216;7.912;2022-10-16T05:24:05;12.70;99.90
20574;DHT22;10445;50.216;7.912;2022-10-16T05:26:55;12.80;99.90
20574;DHT22;10445;50.216;7.912;2022-10-16T05:29:44;12.80;99.90
20574;DHT22;10445;50.216;7.912;2022-10-16T05:32:33;12.80;99.90
20574;DHT22;10445;50.216;7.912;2022-10-16T05:35:22;12.80;99.90
20574;DHT22;10445;50.216;7.912;2022-10-16T05:38:10;12.80;99.90
20574;DHT22;10445;50.216;7.912;2022-10-16T05:40:59;12.80;99.90
20574;DHT22;10445;50.216;7.912;2022-10-16T05:43:49;12.80;99.90
20574;DHT22;10445;50.216;7.912;2022-10-16T05:46:37;12.80;99.90
20574;DHT22;10445;50.216;7.912;2022-10-16T05:49:26;12.80;99.90
20574;DHT22;10445;50.216;7.912;2022-10-16T05:52:15;12.70;99.90
20574;DHT22;10445;50.216;7.912;2022-10-16T05:55:04;12.80;99.90
20574;DHT22;10445;50.216;7.912;2022-10-16T05:57:54;12.90;99.90
20574;DHT22;10445;50.216;7.912;2022-10-16T06:00:44;12.90;99.90
20574;DHT22;10445;50.216;7.912;2022-10-16T06:03:33;12.90;99.90
20574;DHT22;10445;50.216;7.912;2022-10-16T06:06:23;12.90;99.90
20574;DHT22;10445;50.216;7.912;2022-10-16T06:09:12;12.80;99.90
20574;DHT22;10445;50.216;7.912;2022-10-16T06:12:01;12.80;99.90
20574;DHT22;10445;50.216;7.912;2022-10-16T06:14:50;12.80;99.90
20574;DHT22;10445;50.216;7.912;2022-10-16T06:17:40;12.80;99.90
20574;DHT22;10445;50.216;7.912;2022-10-16T06:20:28;12.90;99.90
20574;DHT22;10445;50.216;7.912;2022-10-16T06:23:17;12.90;99.90
20574;DHT22;10445;50.216;7.912;2022-10-16T06:26:06;12.90;99.90
20574;DHT22;10445;50.216;7.912;2022-10-16T06:28:56;12.90;99.90
20574;DHT22;10445;50.216;7.912;2022-10-16T06:31:45;13.00;99.90
20574;DHT22;10445;50.216;7.912;2022-10-16T06:34:35;12.90;99.90
20574;DHT22;10445;50.216;7.912;2022-10-16T06:37:28;12.90;99.90
20574;DHT22;10445;50.216;7.912;2022-10-16T06:40:16;13.00;99.90
20574;DHT22;10445;50.216;7.912;2022-10-16T06:43:05;13.00;99.90
20574;DHT22;10445;50.216;7.912;2022-10-16T06:45:54;13.00;99.90
20574;DHT22;10445;50.216;7.912;2022-10-16T06:48:43;13.00;99.90
20574;DHT22;10445;50.216;7.912;2022-10-16T06:51:33;13.10;99.90
20574;DHT22;10445;50.216;7.912;2022-10-16T06:54:29;13.10;99.90
20574;DHT22;10445;50.216;7.912;2022-10-16T06:57:28;13.10;99.90
20574;DHT22;10445;50.216;7.912;2022-10-16T07:00:16;13.10;99.90
20574;DHT22;10445;50.216;7.912;2022-10-16T07:03:05;13.10;99.90
20574;DHT22;10445;50.216;7.912;2022-10-16T07:05:54;13.10;99.90
20574;DHT22;10445;50.216;7.912;2022-10-16T07:08:45;13.10;99.90
20574;DHT22;10445;50.216;7.912;2022-10-16T07:11:35;13.10;99.90
20574;DHT22;10445;50.216;7.912;2022-10-16T07:14:24;13.10;99.90
20574;DHT22;10445;50.216;7.912;2022-10-16T07:17:13;13.20;99.90
20574;DHT22;10445;50.216;7.912;2022-10-16T07:20:02;13.20;99.90
20574;DHT22;10445;50.216;7.912;2022-10-16T07:22:50;13.20;99.90
20574;DHT22;10445;50.216;7.912;2022-10-16T07:25:40;13.30;99.90
20574;DHT22;10445;50.216;7.912;2022-10-16T07:28:29;13.30;99.90
20574;DHT22;10445;50.216;7.912;2022-10-16T07:31:20;13.30;99.90
20574;DHT22;10445;50.216;7.912;2022-10-16T07:34:10;13.30;99.90
20574;DHT22;10445;50.216;7.912;2022-10-16T07:36:59;13.30;99.90
20574;DHT22;10445;50.216;7.912;2022-10-16T07:39:48;13.40;99.90
20574;DHT22;10445;50.216;7.912;2022-10-16T07:42:38;13.40;99.90
20574;DHT22;10445;50.216;7.912;2022-10-16T07:45:26;13.40;99.90
20574;DHT22;10445;50.216;7.912;2022-10-16T07:48:15;13.40;99.90
20574;DHT22;10445;50.216;7.912;2022-10-16T07:51:05;13.40;99.90
20574;DHT22;10445;50.216;7.912;2022-10-16T07:53:54;13.50;99.90
20574;DHT22;10445;50.216;7.912;2022-10-16T07:56:43;13.60;99.90
20574;DHT22;10445;50.216;7.912;2022-10-16T07:59:33;13.60;99.90
20574;DHT22;10445;50.216;7.912;2022-10-16T08:02:21;13.60;99.90
20574;DHT22;10445;50.216;7.912;2022-10-16T08:05:10;13.60;99.90
20574;DHT22;10445;50.216;7.912;2022-10-16T08:07:58;13.60;99.90
20574;DHT22;10445;50.216;7.912;2022-10-16T08:10:47;13.60;99.90
20574;DHT22;10445;50.216;7.912;2022-10-16T08:13:36;13.70;99.90
20574;DHT22;10445;50.216;7.912;2022-10-16T08:16:26;13.70;99.90
20574;DHT22;10445;50.216;7.912;2022-10-16T08:19:15;13.70;99.90
20574;DHT22;10445;50.216;7.912;2022-10-16T08:22:03;13.70;99.90
20574;DHT22;10445;50.216;7.912;2022-10-16T08:24:52;13.80;99.90
20574;DHT22;10445;50.216;7.912;2022-10-16T08:27:40;13.80;99.90
20574;DHT22;10445;50.216;7.912;2022-10-16T08:30:29;13.90;99.90
20574;DHT22;10445;50.216;7.912;2022-10-16T08:33:19;13.90;99.90
20574;DHT22;10445;50.216;7.912;2022-10-16T08:36:10;14.00;99.90
20574;DHT22;10445;50.216;7.912;2022-10-16T08:38:59;14.10;99.90
20574;DHT22;10445;50.216;7.912;2022-10-16T08:42:08;14.10;99.90
20574;DHT22;10445;50.216;7.912;2022-10-16T08:45:25;14.10;99.90
20574;DHT22;10445;50.216;7.912;2022-10-16T08:48:21;14.10;99.90
20574;DHT22;10445;50.216;7.912;2022-10-16T08:51:14;14.20;99.90
20574;DHT22;10445;50.216;7.912;2022-10-16T08:54:05;14.20;99.90
20574;DHT22;10445;50.216;7.912;2022-10-16T08:56:54;14.30;99.90
20574;DHT22;10445;50.216;7.912;2022-10-16T08:59:44;14.30;99.90
20574;DHT22;10445;50.216;7.912;2022-10-16T09:02:36;14.30;99.90
20574;DHT22;10445;50.216;7.912;2022-10-16T09:08:47;14.50;99.90
20574;DHT22;10445;50.216;7.912;2022-10-16T09:11:45;14.50;99.90
20574;DHT22;10445;50.216;7.912;2022-10-16T09:14:47;14.50;99.90
20574;DHT22;10445;50.216;7.912;2022-10-16T09:17:44;14.50;99.90
20574;DHT22;10445;50.216;7.912;2022-10-16T09:20:52;14.50;99.90
20574;DHT22;10445;50.216;7.912;2022-10-16T09:23:42;14.50;99.90
20574;DHT22;10445;50.216;7.912;2022-10-16T09:26:30;14.40;99.90
20574;DHT22;10445;50.216;7.912;2022-10-16T09:29:21;14.40;99.90
20574;DHT22;10445;50.216;7.912;2022-10-16T09:32:14;14.50;99.90
20574;DHT22;10445;50.216;7.912;2022-10-16T09:35:11;14.50;99.90
20574;DHT22;10445;50.216;7.912;2022-10-16T09:38:02;14.50;99.90
20574;DHT22;10445;50.216;7.912;2022-10-16T09:40:52;14.50;99.90
20574;DHT22;10445;50.216;7.912;2022-10-16T09:43:52;14.50;99.90
20574;DHT22;10445;50.216;7.912;2022-10-16T09:46:41;14.50;99.90
20574;DHT22;10445;50.216;7.912;2022-10-16T09:49:30;14.50;99.90
20574;DHT22;10445;50.216;7.912;2022-10-16T09:52:19;14.60;99.90
20574;DHT22;10445;50.216;7.912;2022-10-16T09:55:15;14.60;99.90
20574;DHT22;10445;50.216;7.912;2022-10-16T09:58:13;14.60;99.90
20574;DHT22;10445;50.216;7.912;2022-10-16T10:01:02;14.70;99.90
20574;DHT22;10445;50.216;7.912;2022-10-16T10:03:50;14.70;99.90
20574;DHT22;10445;50.216;7.912;2022-10-16T10:06:49;14.70;99.90
20574;DHT22;10445;50.216;7.912;2022-10-16T10:09:42;14.80;99.90
20574;DHT22;10445;50.216;7.912;2022-10-16T10:12:33;15.00;99.90
20574;DHT22;10445;50.216;7.912;2022-10-16T10:15:24;15.20;99.90
20574;DHT22;10445;50.216;7.912;2022-10-16T10:18:18;15.20;99.90
20574;DHT22;10445;50.216;7.912;2022-10-16T10:21:14;15.30;99.90
20574;DHT22;10445;50.216;7.912;2022-10-16T10:24:08;15.30;99.90
20574;DHT22;10445;50.216;7.912;2022-10-16T10:27:03;15.40;99.90
20574;DHT22;10445;50.216;7.912;2022-10-16T10:30:00;15.50;99.90
20574;DHT22;10445;50.216;7.912;2022-10-16T10:33:08;15.50;99.90
20574;DHT22;10445;50.216;7.912;2022-10-16T10:36:05;15.60;99.90
20574;DHT22;10445;50.216;7.912;2022-10-16T10:38:59;15.70;99.90
20574;DHT22;10445;50.216;7.912;2022-10-16T10:42:08;15.80;99.90
20574;DHT22;10445;50.216;7.912;2022-10-16T10:45:22;16.00;99.90
20574;DHT22;10445;50.216;7.912;2022-10-16T10:48:22;16.00;99.90
20574;DHT22;10445;50.216;7.912;2022-10-16T10:51:23;16.10;99.90
20574;DHT22;10445;50.216;7.912;2022-10-16T10:54:20;16.20;99.60
20574;DHT22;10445;50.216;7.912;2022-10-16T10:57:21;16.30;97.10
20574;DHT22;10445;50.216;7.912;2022-10-16T11:00:21;16.30;93.10
20574;DHT22;10445;50.216;7.912;2022-10-16T11:03:23;16.30;92.70
20574;DHT22;10445;50.216;7.912;2022-10-16T11:06:18;16.40;94.10
20574;DHT22;10445;50.216;7.912;2022-10-16T11:09:15;16.50;94.20
20574;DHT22;10445;50.216;7.912;2022-10-16T11:12:07;16.70;91.20
20574;DHT22;10445;50.216;7.912;2022-10-16T11:15:03;16.90;90.20
20574;DHT22;10445;50.216;7.912;2022-10-16T11:17:59;17.00;87.10
20574;DHT22;10445;50.216;7.912;2022-10-16T11:20:53;17.10;87.50
20574;DHT22;10445;50.216;7.912;2022-10-16T11:23:45;17.40;86.60
20574;DHT22;10445;50.216;7.912;2022-10-16T11:26:41;17.40;80.60
20574;DHT22;10445;50.216;7.912;2022-10-16T11:29:32;17.40;83.80
20574;DHT22;10445;50.216;7.912;2022-10-16T11:32:27;17.50;88.20
20574;DHT22;10445;50.216;7.912;2022-10-16T11:35:23;17.60;88.00
20574;DHT22;10445;50.216;7.912;2022-10-16T11:38:18;17.60;82.70
20574;DHT22;10445;50.216;7.912;2022-10-16T11:41:18;17.70;80.40
20574;DHT22;10445;50.216;7.912;2022-10-16T11:44:23;17.70;78.00
20574;DHT22;10445;50.216;7.912;2022-10-16T11:47:24;17.50;78.90
20574;DHT22;10445;50.216;7.912;2022-10-16T11:50:39;17.40;80.10
20574;DHT22;10445;50.216;7.912;2022-10-16T11:53:39;17.30;83.70
20574;DHT22;10445;50.216;7.912;2022-10-16T11:56:32;17.20;86.70
20574;DHT22;10445;50.216;7.912;2022-10-16T11:59:27;17.20;88.10
20574;DHT22;10445;50.216;7.912;2022-10-16T12:02:35;17.20;90.40
20574;DHT22;10445;50.216;7.912;2022-10-16T12:05:34;17.40;87.90
20574;DHT22;10445;50.216;7.912;2022-10-16T12:08:25;17.40;87.70
20574;DHT22;10445;50.216;7.912;2022-10-16T12:11:30;17.40;87.70
20574;DHT22;10445;50.216;7.912;2022-10-16T12:14:32;17.40;85.30
20574;DHT22;10445;50.216;7.912;2022-10-16T12:17:38;17.40;81.30
20574;DHT22;10445;50.216;7.912;2022-10-16T12:20:28;17.40;84.50
20574;DHT22;10445;50.216;7.912;2022-10-16T12:23:20;17.40;84.60
20574;DHT22;10445;50.216;7.912;2022-10-16T12:26:11;17.40;84.90
20574;DHT22;10445;50.216;7.912;2022-10-16T12:29:13;17.40;85.80
20574;DHT22;10445;50.216;7.912;2022-10-16T12:32:04;17.40;85.40
20574;DHT22;10445;50.216;7.912;2022-10-16T12:34:53;17.50;87.40
20574;DHT22;10445;50.216;7.912;2022-10-16T12:37:42;17.50;84.70
20574;DHT22;10445;50.216;7.912;2022-10-16T12:40:33;17.50;86.50
20574;DHT22;10445;50.216;7.912;2022-10-16T12:43:35;17.50;87.80
20574;DHT22;10445;50.216;7.912;2022-10-16T12:46:37;17.50;89.10
20574;DHT22;10445;50.216;7.912;2022-10-16T12:49:36;17.50;85.60
20574;DHT22;10445;50.216;7.912;2022-10-16T12:52:28;17.40;87.10
20574;DHT22;10445;50.216;7.912;2022-10-16T12:55:19;17.30;87.70
20574;DHT22;10445;50.216;7.912;2022-10-16T12:58:16;17.20;91.10
20574;DHT22;10445;50.216;7.912;2022-10-16T13:01:17;17.20;94.20
20574;DHT22;10445;50.216;7.912;2022-10-16T13:04:40;17.20;93.90
20574;DHT22;10445;50.216;7.912;2022-10-16T13:07:44;17.20;95.50
20574;DHT22;10445;50.216;7.912;2022-10-16T13:10:41;17.20;92.10
20574;DHT22;10445;50.216;7.912;2022-10-16T13:13:59;17.30;92.00
20574;DHT22;10445;50.216;7.912;2022-10-16T13:16:59;17.30;90.70
20574;DHT22;10445;50.216;7.912;2022-10-16T13:19:55;17.60;89.00
20574;DHT22;10445;50.216;7.912;2022-10-16T13:22:52;17.80;89.20
20574;DHT22;10445;50.216;7.912;2022-10-16T13:25:53;17.90;87.10
20574;DHT22;10445;50.216;7.912;2022-10-16T13:28:45;17.80;82.50
20574;DHT22;10445;50.216;7.912;2022-10-16T13:31:37;17.50;85.50
20574;DHT22;10445;50.216;7.912;2022-10-16T13:34:28;17.40;90.30
20574;DHT22;10445;50.216;7.912;2022-10-16T13:37:19;17.20;92.00
20574;DHT22;10445;50.216;7.912;2022-10-16T13:40:23;17.10;93.60
20574;DHT22;10445;50.216;7.912;2022-10-16T13:43:11;17.10;96.30
20574;DHT22;10445;50.216;7.912;2022-10-16T13:46:02;17.10;96.90
20574;DHT22;10445;50.216;7.912;2022-10-16T13:48:57;17.10;96.70
20574;DHT22;10445;50.216;7.912;2022-10-16T13:51:56;17.10;96.80
20574;DHT22;10445;50.216;7.912;2022-10-16T13:54:46;17.10;97.70
20574;DHT22;10445;50.216;7.912;2022-10-16T13:57:35;17.10;99.20
20574;DHT22;10445;50.216;7.912;2022-10-16T14:00:25;17.20;96.80
20574;DHT22;10445;50.216;7.912;2022-10-16T14:03:17;17.20;96.30
20574;DHT22;10445;50.216;7.912;2022-10-16T14:06:12;17.20;97.60
20574;DHT22;10445;50.216;7.912;2022-10-16T14:09:06;17.10;99.20
20574;DHT22;10445;50.216;7.912;2022-10-16T14:11:58;17.20;97.30
20574;DHT22;10445;50.216;7.912;2022-10-16T14:14:51;17.20;97.30
20574;DHT22;10445;50.216;7.912;2022-10-16T14:17:44;17.20;99.10
20574;DHT22;10445;50.216;7.912;2022-10-16T14:20:34;17.20;97.50
20574;DHT22;10445;50.216;7.912;2022-10-16T14:23:28;17.10;98.80
20574;DHT22;10445;50.216;7.912;2022-10-16T14:26:20;17.10;97.60
20574;DHT22;10445;50.216;7.912;2022-10-16T14:29:15;17.10;99.80
20574;DHT22;10445;50.216;7.912;2022-10-16T14:32:05;17.20;98.90
20574;DHT22;10445;50.216;7.912;2022-10-16T14:34:56;17.20;98.60
20574;DHT22;10445;50.216;7.912;2022-10-16T14:37:45;17.20;99.70
20574;DHT22;10445;50.216;7.912;2022-10-16T14:40:36;17.30;99.90
20574;DHT22;10445;50.216;7.912;2022-10-16T14:43:32;17.30;99.90
20574;DHT22;10445;50.216;7.912;2022-10-16T14:46:27;17.50;97.00
20574;DHT22;10445;50.216;7.912;2022-10-16T14:49:18;17.60;95.00
20574;DHT22;10445;50.216;7.912;2022-10-16T14:52:10;17.50;94.30
20574;DHT22;10445;50.216;7.912;2022-10-16T14:54:58;17.50;95.00
20574;DHT22;10445;50.216;7.912;2022-10-16T14:57:47;17.40;96.50
20574;DHT22;10445;50.216;7.912;2022-10-16T15:00:37;17.30;98.30
20574;DHT22;10445;50.216;7.912;2022-10-16T15:03:26;17.20;98.80
20574;DHT22;10445;50.216;7.912;2022-10-16T15:06:16;17.10;99.10
20574;DHT22;10445;50.216;7.912;2022-10-16T15:09:04;17.10;99.90
20574;DHT22;10445;50.216;7.912;2022-10-16T15:11:53;17.20;99.70
20574;DHT22;10445;50.216;7.912;2022-10-16T15:14:41;17.00;99.90
20574;DHT22;10445;50.216;7.912;2022-10-16T15:17:31;17.10;99.90
20574;DHT22;10445;50.216;7.912;2022-10-16T15:20:20;17.10;99.90
20574;DHT22;10445;50.216;7.912;2022-10-16T15:23:14;17.00;99.90
20574;DHT22;10445;50.216;7.912;2022-10-16T15:26:03;17.10;99.90
20574;DHT22;10445;50.216;7.912;2022-10-16T15:28:51;17.10;99.90
20574;DHT22;10445;50.216;7.912;2022-10-16T15:31:40;17.00;99.90
20574;DHT22;10445;50.216;7.912;2022-10-16T15:34:31;16.90;99.90
20574;DHT22;10445;50.216;7.912;2022-10-16T15:37:19;16.90;99.90
20574;DHT22;10445;50.216;7.912;2022-10-16T15:40:09;16.90;99.90
20574;DHT22;10445;50.216;7.912;2022-10-16T15:42:58;16.80;99.90
20574;DHT22;10445;50.216;7.912;2022-10-16T15:45:58;16.80;99.90
20574;DHT22;10445;50.216;7.912;2022-10-16T15:48:47;16.70;99.90
20574;DHT22;10445;50.216;7.912;2022-10-16T15:51:40;16.80;99.90
20574;DHT22;10445;50.216;7.912;2022-10-16T15:54:29;16.70;99.90
20574;DHT22;10445;50.216;7.912;2022-10-16T15:57:17;16.70;99.90
20574;DHT22;10445;50.216;7.912;2022-10-16T16:00:07;16.60;99.90
20574;DHT22;10445;50.216;7.912;2022-10-16T16:02:57;16.60;99.90
20574;DHT22;10445;50.216;7.912;2022-10-16T16:05:45;16.50;99.90
20574;DHT22;10445;50.216;7.912;2022-10-16T16:08:35;16.50;99.90
20574;DHT22;10445;50.216;7.912;2022-10-16T16:11:24;16.50;99.90
20574;DHT22;10445;50.216;7.912;2022-10-16T16:14:13;16.40;99.90
20574;DHT22;10445;50.216;7.912;2022-10-16T16:17:02;16.40;99.90
20574;DHT22;10445;50.216;7.912;2022-10-16T16:19:51;16.30;99.90
20574;DHT22;10445;50.216;7.912;2022-10-16T16:22:39;16.30;99.90
20574;DHT22;10445;50.216;7.912;2022-10-16T16:25:29;16.30;99.90
20574;DHT22;10445;50.216;7.912;2022-10-16T16:28:18;16.30;99.90
20574;DHT22;10445;50.216;7.912;2022-10-16T16:31:07;16.30;99.90
20574;DHT22;10445;50.216;7.912;2022-10-16T16:33:56;16.20;99.90
20574;DHT22;10445;50.216;7.912;2022-10-16T16:36:45;16.20;99.90
20574;DHT22;10445;50.216;7.912;2022-10-16T16:39:34;16.20;99.90
20574;DHT22;10445;50.216;7.912;2022-10-16T16:42:24;16.10;99.90
20574;DHT22;10445;50.216;7.912;2022-10-16T16:45:12;16.10;99.90
20574;DHT22;10445;50.216;7.912;2022-10-16T16:48:01;16.10;99.90
20574;DHT22;10445;50.216;7.912;2022-10-16T16:50:49;16.10;99.90
20574;DHT22;10445;50.216;7.912;2022-10-16T16:53:38;16.10;99.90
20574;DHT22;10445;50.216;7.912;2022-10-16T16:56:27;16.00;99.90
20574;DHT22;10445;50.216;7.912;2022-10-16T16:59:18;16.10;99.90
20574;DHT22;10445;50.216;7.912;2022-10-16T17:02:08;16.00;99.90
20574;DHT22;10445;50.216;7.912;2022-10-16T17:04:56;16.00;99.90
20574;DHT22;10445;50.216;7.912;2022-10-16T17:07:45;16.00;99.90
20574;DHT22;10445;50.216;7.912;2022-10-16T17:10:34;16.00;99.90
20574;DHT22;10445;50.216;7.912;2022-10-16T17:13:32;16.00;99.90
20574;DHT22;10445;50.216;7.912;2022-10-16T17:16:28;16.00;99.90
20574;DHT22;10445;50.216;7.912;2022-10-16T17:19:18;16.00;99.90
20574;DHT22;10445;50.216;7.912;2022-10-16T17:22:07;16.00;99.90
20574;DHT22;10445;50.216;7.912;2022-10-16T17:24:55;16.00;99.90
20574;DHT22;10445;50.216;7.912;2022-10-16T17:27:44;16.00;99.90
20574;DHT22;10445;50.216;7.912;2022-10-16T17:30:33;16.00;99.90
20574;DHT22;10445;50.216;7.912;2022-10-16T17:33:23;16.00;99.90
20574;DHT22;10445;50.216;7.912;2022-10-16T17:36:12;16.00;99.90
20574;DHT22;10445;50.216;7.912;2022-10-16T17:39:03;16.00;99.90
20574;DHT22;10445;50.216;7.912;2022-10-16T17:41:52;16.00;99.90
20574;DHT22;10445;50.216;7.912;2022-10-16T17:44:41;16.00;99.90
20574;DHT22;10445;50.216;7.912;2022-10-16T17:47:30;16.00;99.90
20574;DHT22;10445;50.216;7.912;2022-10-16T17:50:20;15.90;99.90
20574;DHT22;10445;50.216;7.912;2022-10-16T17:53:09;15.90;99.90
20574;DHT22;10445;50.216;7.912;2022-10-16T17:56:02;15.90;99.90
20574;DHT22;10445;50.216;7.912;2022-10-16T17:58:52;15.80;99.90
20574;DHT22;10445;50.216;7.912;2022-10-16T18:01:40;15.90;99.90
20574;DHT22;10445;50.216;7.912;2022-10-16T18:04:32;15.90;99.90
20574;DHT22;10445;50.216;7.912;2022-10-16T18:07:22;15.80;99.90